sensor_id;sensor_type;location;lat;lon;timestamp;P1;durP1;ratioP1;P2;durP2;ratioP2
23088;SDS011;11713;48.506;8.966;2023-02-15T00:01:51;21.37;;;13.97;;
23088;SDS011;11713;48.506;8.966;2023-02-15T00:04:19;22.47;;;14.27;;
23088;SDS011;11713;48.506;8.966;2023-02-15T00:06:46;22.47;;;14.00;;
23088;SDS011;11713;48.506;8.966;2023-02-15T00:09:12;23.50;;;14.60;;
23088;SDS011;11713;48.506;8.966;2023-02-15T00:11:38;20.30;;;14.07;;
23088;SDS011;11713;48.506;8.966;2023-02-15T00:14:15;23.93;;;14.13;;
23088;SDS011;11713;48.506;8.966;2023-02-15T00:16:43;23.67;;;14.50;;
23088;SDS011;11713;48.506;8.966;2023-02-15T00:19:10;20.80;;;13.93;;
23088;SDS011;11713;48.506;8.966;2023-02-15T00:21:38;21.67;;;14.37;;
23088;SDS011;11713;48.506;8.966;2023-02-15T00:24:05;23.97;;;15.63;;
23088;SDS011;11713;48.506;8.966;2023-02-15T00:26:32;22.23;;;14.43;;
23088;SDS011;11713;48.506;8.966;2023-02-15T00:51:02;17.97;;;11.87;;
23088;SDS011;11713;48.506;8.966;2023-02-15T00:53:29;19.63;;;12.33;;
23088;SDS011;11713;48.506;8.966;2023-02-15T00:55:55;18.93;;;12.70;;
23088;SDS011;11713;48.506;8.966;2023-02-15T00:58:22;18.53;;;12.80;;
23088;SDS011;11713;48.506;8.966;2023-02-15T01:00:48;21.07;;;12.50;;
23088;SDS011;11713;48.506;8.966;2023-02-15T01:03:14;17.67;;;11.60;;
23088;SDS011;11713;48.506;8.966;2023-02-15T01:05:42;19.83;;;11.83;;
23088;SDS011;11713;48.506;8.966;2023-02-15T01:08:08;17.37;;;11.50;;
23088;SDS011;11713;48.506;8.966;2023-02-15T01:10:36;18.10;;;11.90;;
23088;SDS011;11713;48.506;8.966;2023-02-15T01:13:04;17.40;;;11.27;;
23088;SDS011;11713;48.506;8.966;2023-02-15T01:15:33;18.90;;;11.97;;
23088;SDS011;11713;48.506;8.966;2023-02-15T01:18:00;17.47;;;11.50;;
23088;SDS011;11713;48.506;8.966;2023-02-15T01:20:27;18.60;;;11.87;;
23088;SDS011;11713;48.506;8.966;2023-02-15T01:22:54;17.97;;;10.50;;
23088;SDS011;11713;48.506;8.966;2023-02-15T01:25:22;15.87;;;10.70;;
23088;SDS011;11713;48.506;8.966;2023-02-15T01:27:48;17.73;;;11.13;;
23088;SDS011;11713;48.506;8.966;2023-02-15T01:30:15;17.53;;;10.67;;
23088;SDS011;11713;48.506;8.966;2023-02-15T01:32:42;17.97;;;11.27;;
23088;SDS011;11713;48.506;8.966;2023-02-15T01:35:08;17.93;;;10.93;;
23088;SDS011;11713;48.506;8.966;2023-02-15T01:37:35;18.57;;;11.73;;
23088;SDS011;11713;48.506;8.966;2023-02-15T01:40:01;28.97;;;16.77;;
23088;SDS011;11713;48.506;8.966;2023-02-15T01:42:28;29.10;;;17.30;;
23088;SDS011;11713;48.506;8.966;2023-02-15T01:44:59;24.77;;;16.30;;
23088;SDS011;11713;48.506;8.966;2023-02-15T01:47:30;27.73;;;16.60;;
23088;SDS011;11713;48.506;8.966;2023-02-15T01:55:39;31.87;;;16.87;;
23088;SDS011;11713;48.506;8.966;2023-02-15T01:58:10;28.80;;;17.50;;
23088;SDS011;11713;48.506;8.966;2023-02-15T02:00:36;31.20;;;16.80;;
23088;SDS011;11713;48.506;8.966;2023-02-15T02:03:02;24.80;;;15.57;;
23088;SDS011;11713;48.506;8.966;2023-02-15T02:05:29;30.37;;;16.97;;
23088;SDS011;11713;48.506;8.966;2023-02-15T02:07:56;27.13;;;16.90;;
23088;SDS011;11713;48.506;8.966;2023-02-15T02:10:24;27.80;;;16.90;;
23088;SDS011;11713;48.506;8.966;2023-02-15T02:12:52;32.80;;;17.20;;
23088;SDS011;11713;48.506;8.966;2023-02-15T02:15:23;27.20;;;16.83;;
23088;SDS011;11713;48.506;8.966;2023-02-15T02:18:21;24.33;;;15.50;;
23088;SDS011;11713;48.506;8.966;2023-02-15T02:24:03;24.20;;;15.63;;
23088;SDS011;11713;48.506;8.966;2023-02-15T02:40:36;21.83;;;13.57;;
23088;SDS011;11713;48.506;8.966;2023-02-15T02:48:48;20.70;;;13.50;;
23088;SDS011;11713;48.506;8.966;2023-02-15T02:51:14;24.97;;;12.97;;
23088;SDS011;11713;48.506;8.966;2023-02-15T02:53:47;22.43;;;13.60;;
23088;SDS011;11713;48.506;8.966;2023-02-15T02:56:29;21.77;;;13.77;;
23088;SDS011;11713;48.506;8.966;2023-02-15T02:59:10;24.00;;;13.97;;
23088;SDS011;11713;48.506;8.966;2023-02-15T03:01:46;21.33;;;13.53;;
23088;SDS011;11713;48.506;8.966;2023-02-15T03:04:21;23.13;;;14.17;;
23088;SDS011;11713;48.506;8.966;2023-02-15T03:07:01;22.37;;;14.30;;
23088;SDS011;11713;48.506;8.966;2023-02-15T03:09:33;24.63;;;15.33;;
23088;SDS011;11713;48.506;8.966;2023-02-15T03:14:46;28.07;;;15.30;;
23088;SDS011;11713;48.506;8.966;2023-02-15T03:17:38;21.67;;;14.80;;
23088;SDS011;11713;48.506;8.966;2023-02-15T03:20:12;25.97;;;14.97;;
23088;SDS011;11713;48.506;8.966;2023-02-15T03:22:51;22.47;;;14.50;;
23088;SDS011;11713;48.506;8.966;2023-02-15T03:25:26;25.30;;;14.87;;
23088;SDS011;11713;48.506;8.966;2023-02-15T03:28:03;22.03;;;14.43;;
23088;SDS011;11713;48.506;8.966;2023-02-15T03:30:35;23.23;;;13.70;;
23088;SDS011;11713;48.506;8.966;2023-02-15T03:33:03;24.50;;;15.57;;
23088;SDS011;11713;48.506;8.966;2023-02-15T03:35:45;22.27;;;14.90;;
23088;SDS011;11713;48.506;8.966;2023-02-15T03:38:18;22.27;;;14.23;;
23088;SDS011;11713;48.506;8.966;2023-02-15T03:40:50;25.67;;;14.47;;
23088;SDS011;11713;48.506;8.966;2023-02-15T03:52:03;20.50;;;11.20;;
23088;SDS011;11713;48.506;8.966;2023-02-15T03:54:32;16.80;;;10.87;;
23088;SDS011;11713;48.506;8.966;2023-02-15T03:57:14;18.33;;;10.60;;
23088;SDS011;11713;48.506;8.966;2023-02-15T04:00:14;18.67;;;11.03;;
23088;SDS011;11713;48.506;8.966;2023-02-15T04:05:35;17.43;;;11.33;;
23088;SDS011;11713;48.506;8.966;2023-02-15T04:08:01;19.37;;;12.03;;
23088;SDS011;11713;48.506;8.966;2023-02-15T04:10:27;22.63;;;14.03;;
23088;SDS011;11713;48.506;8.966;2023-02-15T04:13:12;24.07;;;14.33;;
23088;SDS011;11713;48.506;8.966;2023-02-15T04:15:37;24.63;;;15.03;;
23088;SDS011;11713;48.506;8.966;2023-02-15T04:18:22;24.43;;;14.63;;
23088;SDS011;11713;48.506;8.966;2023-02-15T04:21:06;23.83;;;14.70;;
23088;SDS011;11713;48.506;8.966;2023-02-15T04:23:50;22.73;;;13.43;;
23088;SDS011;11713;48.506;8.966;2023-02-15T04:26:34;22.07;;;12.43;;
23088;SDS011;11713;48.506;8.966;2023-02-15T04:29:00;21.67;;;13.37;;
23088;SDS011;11713;48.506;8.966;2023-02-15T04:31:25;21.00;;;12.83;;
23088;SDS011;11713;48.506;8.966;2023-02-15T04:33:51;23.83;;;13.13;;
23088;SDS011;11713;48.506;8.966;2023-02-15T04:36:17;19.33;;;12.37;;
23088;SDS011;11713;48.506;8.966;2023-02-15T04:38:43;22.63;;;13.20;;
23088;SDS011;11713;48.506;8.966;2023-02-15T04:41:09;23.70;;;12.80;;
23088;SDS011;11713;48.506;8.966;2023-02-15T04:43:38;21.63;;;12.97;;
23088;SDS011;11713;48.506;8.966;2023-02-15T04:46:06;23.50;;;13.63;;
23088;SDS011;11713;48.506;8.966;2023-02-15T04:48:36;23.30;;;13.87;;
23088;SDS011;11713;48.506;8.966;2023-02-15T04:51:06;26.70;;;13.87;;
23088;SDS011;11713;48.506;8.966;2023-02-15T04:53:33;23.00;;;14.17;;
23088;SDS011;11713;48.506;8.966;2023-02-15T04:56:01;23.70;;;14.60;;
23088;SDS011;11713;48.506;8.966;2023-02-15T04:58:28;26.93;;;14.50;;
23088;SDS011;11713;48.506;8.966;2023-02-15T05:00:56;21.60;;;13.77;;
23088;SDS011;11713;48.506;8.966;2023-02-15T05:03:23;21.30;;;12.97;;
23088;SDS011;11713;48.506;8.966;2023-02-15T05:05:50;20.90;;;13.13;;
23088;SDS011;11713;48.506;8.966;2023-02-15T05:08:17;23.10;;;13.23;;
23088;SDS011;11713;48.506;8.966;2023-02-15T05:10:42;23.03;;;13.77;;
23088;SDS011;11713;48.506;8.966;2023-02-15T05:13:08;20.07;;;12.63;;
23088;SDS011;11713;48.506;8.966;2023-02-15T05:15:34;18.90;;;12.33;;
23088;SDS011;11713;48.506;8.966;2023-02-15T05:18:00;23.17;;;13.27;;
23088;SDS011;11713;48.506;8.966;2023-02-15T05:20:26;26.97;;;14.40;;
23088;SDS011;11713;48.506;8.966;2023-02-15T05:22:53;29.73;;;16.63;;
23088;SDS011;11713;48.506;8.966;2023-02-15T05:25:19;53.87;;;29.77;;
23088;SDS011;11713;48.506;8.966;2023-02-15T05:28:04;52.03;;;27.27;;
23088;SDS011;11713;48.506;8.966;2023-02-15T05:30:46;26.03;;;16.00;;
23088;SDS011;11713;48.506;8.966;2023-02-15T05:33:12;24.23;;;14.80;;
23088;SDS011;11713;48.506;8.966;2023-02-15T05:35:38;22.80;;;13.33;;
23088;SDS011;11713;48.506;8.966;2023-02-15T05:38:04;20.63;;;12.87;;
23088;SDS011;11713;48.506;8.966;2023-02-15T05:40:30;21.07;;;12.03;;
23088;SDS011;11713;48.506;8.966;2023-02-15T05:42:56;18.30;;;12.07;;
23088;SDS011;11713;48.506;8.966;2023-02-15T05:45:22;19.33;;;12.43;;
23088;SDS011;11713;48.506;8.966;2023-02-15T05:47:48;16.57;;;11.60;;
23088;SDS011;11713;48.506;8.966;2023-02-15T05:50:14;16.37;;;11.30;;
23088;SDS011;11713;48.506;8.966;2023-02-15T05:52:41;16.97;;;11.70;;
23088;SDS011;11713;48.506;8.966;2023-02-15T05:55:06;18.03;;;11.23;;
23088;SDS011;11713;48.506;8.966;2023-02-15T05:57:34;27.07;;;13.90;;
23088;SDS011;11713;48.506;8.966;2023-02-15T06:00:01;23.67;;;13.23;;
23088;SDS011;11713;48.506;8.966;2023-02-15T06:02:36;26.63;;;16.13;;
23088;SDS011;11713;48.506;8.966;2023-02-15T06:05:03;28.50;;;16.40;;
23088;SDS011;11713;48.506;8.966;2023-02-15T06:07:30;31.40;;;15.67;;
23088;SDS011;11713;48.506;8.966;2023-02-15T06:09:56;23.73;;;14.27;;
23088;SDS011;11713;48.506;8.966;2023-02-15T06:12:22;23.40;;;14.53;;
23088;SDS011;11713;48.506;8.966;2023-02-15T06:14:47;23.37;;;13.07;;
23088;SDS011;11713;48.506;8.966;2023-02-15T06:17:13;22.73;;;13.07;;
23088;SDS011;11713;48.506;8.966;2023-02-15T06:19:39;22.57;;;13.70;;
23088;SDS011;11713;48.506;8.966;2023-02-15T06:22:05;21.90;;;13.40;;
23088;SDS011;11713;48.506;8.966;2023-02-15T06:24:31;19.57;;;11.97;;
23088;SDS011;11713;48.506;8.966;2023-02-15T06:26:57;17.57;;;11.53;;
23088;SDS011;11713;48.506;8.966;2023-02-15T06:29:23;17.60;;;12.23;;
23088;SDS011;11713;48.506;8.966;2023-02-15T06:31:49;18.43;;;11.60;;
23088;SDS011;11713;48.506;8.966;2023-02-15T06:34:15;17.07;;;12.00;;
23088;SDS011;11713;48.506;8.966;2023-02-15T06:36:41;19.60;;;12.10;;
23088;SDS011;11713;48.506;8.966;2023-02-15T06:39:07;17.03;;;12.33;;
23088;SDS011;11713;48.506;8.966;2023-02-15T06:41:33;16.43;;;11.83;;
23088;SDS011;11713;48.506;8.966;2023-02-15T06:44:00;19.23;;;13.20;;
23088;SDS011;11713;48.506;8.966;2023-02-15T06:46:27;16.97;;;11.43;;
23088;SDS011;11713;48.506;8.966;2023-02-15T06:48:53;20.90;;;12.67;;
23088;SDS011;11713;48.506;8.966;2023-02-15T06:51:19;19.23;;;12.27;;
23088;SDS011;11713;48.506;8.966;2023-02-15T06:53:45;19.70;;;13.50;;
23088;SDS011;11713;48.506;8.966;2023-02-15T06:56:11;23.27;;;15.33;;
23088;SDS011;11713;48.506;8.966;2023-02-15T06:58:39;23.10;;;14.57;;
23088;SDS011;11713;48.506;8.966;2023-02-15T07:01:05;27.17;;;15.27;;
23088;SDS011;11713;48.506;8.966;2023-02-15T07:03:32;24.43;;;15.43;;
23088;SDS011;11713;48.506;8.966;2023-02-15T07:06:00;24.83;;;16.03;;
23088;SDS011;11713;48.506;8.966;2023-02-15T07:08:28;25.30;;;15.33;;
23088;SDS011;11713;48.506;8.966;2023-02-15T07:10:54;24.13;;;13.90;;
23088;SDS011;11713;48.506;8.966;2023-02-15T07:13:41;20.93;;;13.67;;
23088;SDS011;11713;48.506;8.966;2023-02-15T07:16:08;16.20;;;11.97;;
23088;SDS011;11713;48.506;8.966;2023-02-15T07:18:35;21.47;;;13.27;;
23088;SDS011;11713;48.506;8.966;2023-02-15T07:21:01;23.87;;;14.87;;
23088;SDS011;11713;48.506;8.966;2023-02-15T07:23:27;22.07;;;13.50;;
23088;SDS011;11713;48.506;8.966;2023-02-15T07:25:57;24.63;;;14.10;;
23088;SDS011;11713;48.506;8.966;2023-02-15T07:28:26;24.83;;;13.87;;
23088;SDS011;11713;48.506;8.966;2023-02-15T07:30:52;24.93;;;13.93;;
23088;SDS011;11713;48.506;8.966;2023-02-15T07:33:18;21.03;;;14.00;;
23088;SDS011;11713;48.506;8.966;2023-02-15T07:35:55;21.03;;;14.97;;
23088;SDS011;11713;48.506;8.966;2023-02-15T07:38:23;24.53;;;15.20;;
23088;SDS011;11713;48.506;8.966;2023-02-15T07:40:50;24.70;;;15.97;;
23088;SDS011;11713;48.506;8.966;2023-02-15T07:43:16;26.37;;;17.30;;
23088;SDS011;11713;48.506;8.966;2023-02-15T07:45:42;29.70;;;17.47;;
23088;SDS011;11713;48.506;8.966;2023-02-15T07:48:08;29.37;;;17.40;;
23088;SDS011;11713;48.506;8.966;2023-02-15T07:50:34;29.60;;;18.00;;
23088;SDS011;11713;48.506;8.966;2023-02-15T07:53:01;26.87;;;15.27;;
23088;SDS011;11713;48.506;8.966;2023-02-15T07:55:27;24.77;;;14.90;;
23088;SDS011;11713;48.506;8.966;2023-02-15T07:57:53;23.30;;;14.70;;
23088;SDS011;11713;48.506;8.966;2023-02-15T08:00:20;27.33;;;15.43;;
23088;SDS011;11713;48.506;8.966;2023-02-15T08:02:55;21.63;;;13.60;;
23088;SDS011;11713;48.506;8.966;2023-02-15T08:05:39;21.63;;;14.87;;
23088;SDS011;11713;48.506;8.966;2023-02-15T08:08:07;23.40;;;14.10;;
23088;SDS011;11713;48.506;8.966;2023-02-15T08:10:34;24.77;;;15.07;;
23088;SDS011;11713;48.506;8.966;2023-02-15T08:13:19;26.20;;;14.33;;
23088;SDS011;11713;48.506;8.966;2023-02-15T08:15:49;20.70;;;14.07;;
23088;SDS011;11713;48.506;8.966;2023-02-15T08:18:15;20.77;;;14.17;;
23088;SDS011;11713;48.506;8.966;2023-02-15T08:20:41;19.47;;;13.40;;
23088;SDS011;11713;48.506;8.966;2023-02-15T08:23:07;22.93;;;15.47;;
23088;SDS011;11713;48.506;8.966;2023-02-15T08:25:33;29.00;;;18.40;;
23088;SDS011;11713;48.506;8.966;2023-02-15T08:27:59;31.33;;;18.43;;
23088;SDS011;11713;48.506;8.966;2023-02-15T08:30:24;32.43;;;18.53;;
23088;SDS011;11713;48.506;8.966;2023-02-15T08:32:50;31.03;;;17.90;;
23088;SDS011;11713;48.506;8.966;2023-02-15T08:35:16;26.20;;;17.10;;
23088;SDS011;11713;48.506;8.966;2023-02-15T08:37:42;27.60;;;16.07;;
23088;SDS011;11713;48.506;8.966;2023-02-15T08:40:08;29.60;;;15.77;;
23088;SDS011;11713;48.506;8.966;2023-02-15T08:42:34;28.80;;;16.47;;
23088;SDS011;11713;48.506;8.966;2023-02-15T08:45:00;24.13;;;14.50;;
23088;SDS011;11713;48.506;8.966;2023-02-15T08:47:26;25.43;;;15.67;;
23088;SDS011;11713;48.506;8.966;2023-02-15T08:49:52;25.07;;;15.17;;
23088;SDS011;11713;48.506;8.966;2023-02-15T08:52:18;22.23;;;13.70;;
23088;SDS011;11713;48.506;8.966;2023-02-15T08:54:43;17.63;;;13.77;;
23088;SDS011;11713;48.506;8.966;2023-02-15T08:57:09;21.03;;;14.97;;
23088;SDS011;11713;48.506;8.966;2023-02-15T08:59:35;23.03;;;14.50;;
23088;SDS011;11713;48.506;8.966;2023-02-15T09:02:01;24.37;;;13.50;;
23088;SDS011;11713;48.506;8.966;2023-02-15T09:04:28;23.80;;;14.47;;
23088;SDS011;11713;48.506;8.966;2023-02-15T09:06:54;23.70;;;14.37;;
23088;SDS011;11713;48.506;8.966;2023-02-15T09:09:20;22.70;;;15.73;;
23088;SDS011;11713;48.506;8.966;2023-02-15T09:11:48;20.57;;;14.63;;
23088;SDS011;11713;48.506;8.966;2023-02-15T09:14:16;19.67;;;14.07;;
23088;SDS011;11713;48.506;8.966;2023-02-15T09:16:45;20.70;;;14.27;;
23088;SDS011;11713;48.506;8.966;2023-02-15T09:19:14;21.00;;;13.50;;
23088;SDS011;11713;48.506;8.966;2023-02-15T09:21:40;21.87;;;14.67;;
23088;SDS011;11713;48.506;8.966;2023-02-15T09:24:07;20.57;;;14.93;;
23088;SDS011;11713;48.506;8.966;2023-02-15T09:26:37;19.83;;;13.80;;
23088;SDS011;11713;48.506;8.966;2023-02-15T09:29:06;20.00;;;13.60;;
23088;SDS011;11713;48.506;8.966;2023-02-15T09:31:33;17.33;;;12.97;;
23088;SDS011;11713;48.506;8.966;2023-02-15T09:34:03;19.23;;;12.67;;
23088;SDS011;11713;48.506;8.966;2023-02-15T09:36:32;16.53;;;12.40;;
23088;SDS011;11713;48.506;8.966;2023-02-15T09:39:10;18.53;;;12.70;;
23088;SDS011;11713;48.506;8.966;2023-02-15T09:47:25;17.73;;;11.77;;
23088;SDS011;11713;48.506;8.966;2023-02-15T10:09:45;21.83;;;13.67;;
23088;SDS011;11713;48.506;8.966;2023-02-15T10:12:26;18.33;;;13.20;;
23088;SDS011;11713;48.506;8.966;2023-02-15T10:15:20;20.33;;;14.37;;
23088;SDS011;11713;48.506;8.966;2023-02-15T10:18:05;21.10;;;13.73;;
23088;SDS011;11713;48.506;8.966;2023-02-15T10:28:31;18.23;;;12.47;;
23088;SDS011;11713;48.506;8.966;2023-02-15T10:47:58;18.63;;;12.00;;
23088;SDS011;11713;48.506;8.966;2023-02-15T10:50:53;17.83;;;11.67;;
23088;SDS011;11713;48.506;8.966;2023-02-15T10:59:14;20.40;;;11.03;;
23088;SDS011;11713;48.506;8.966;2023-02-15T11:06:58;17.27;;;11.20;;
23088;SDS011;11713;48.506;8.966;2023-02-15T11:09:40;18.13;;;12.50;;
23088;SDS011;11713;48.506;8.966;2023-02-15T11:12:13;17.30;;;11.30;;
23088;SDS011;11713;48.506;8.966;2023-02-15T11:17:14;16.63;;;11.10;;
23088;SDS011;11713;48.506;8.966;2023-02-15T11:19:53;12.60;;;10.07;;
23088;SDS011;11713;48.506;8.966;2023-02-15T11:22:21;17.27;;;11.40;;
23088;SDS011;11713;48.506;8.966;2023-02-15T11:24:47;18.00;;;10.73;;
23088;SDS011;11713;48.506;8.966;2023-02-15T11:27:20;15.33;;;11.23;;
23088;SDS011;11713;48.506;8.966;2023-02-15T11:32:39;17.47;;;11.07;;
23088;SDS011;11713;48.506;8.966;2023-02-15T11:37:46;18.10;;;11.07;;
23088;SDS011;11713;48.506;8.966;2023-02-15T11:43:17;17.23;;;10.13;;
23088;SDS011;11713;48.506;8.966;2023-02-15T11:45:48;19.43;;;10.53;;
23088;SDS011;11713;48.506;8.966;2023-02-15T11:48:15;16.77;;;10.70;;
23088;SDS011;11713;48.506;8.966;2023-02-15T11:50:43;14.67;;;10.00;;
23088;SDS011;11713;48.506;8.966;2023-02-15T11:53:13;16.57;;;11.03;;
23088;SDS011;11713;48.506;8.966;2023-02-15T11:55:43;12.93;;;10.53;;
23088;SDS011;11713;48.506;8.966;2023-02-15T12:00:56;15.17;;;10.70;;
23088;SDS011;11713;48.506;8.966;2023-02-15T12:03:34;15.07;;;9.77;;
23088;SDS011;11713;48.506;8.966;2023-02-15T12:06:05;14.80;;;9.93;;
23088;SDS011;11713;48.506;8.966;2023-02-15T12:12:27;14.33;;;9.37;;
23088;SDS011;11713;48.506;8.966;2023-02-15T12:14:54;12.97;;;10.07;;
23088;SDS011;11713;48.506;8.966;2023-02-15T12:17:23;10.83;;;8.93;;
23088;SDS011;11713;48.506;8.966;2023-02-15T12:20:01;13.27;;;9.60;;
23088;SDS011;11713;48.506;8.966;2023-02-15T12:22:51;10.67;;;8.83;;
23088;SDS011;11713;48.506;8.966;2023-02-15T12:25:35;13.73;;;9.07;;
23088;SDS011;11713;48.506;8.966;2023-02-15T12:28:18;11.70;;;9.37;;
23088;SDS011;11713;48.506;8.966;2023-02-15T12:30:56;13.17;;;9.90;;
23088;SDS011;11713;48.506;8.966;2023-02-15T12:33:31;13.13;;;9.73;;
23088;SDS011;11713;48.506;8.966;2023-02-15T12:36:08;14.40;;;9.53;;
23088;SDS011;11713;48.506;8.966;2023-02-15T12:38:37;13.70;;;9.53;;
23088;SDS011;11713;48.506;8.966;2023-02-15T12:41:04;11.80;;;8.87;;
23088;SDS011;11713;48.506;8.966;2023-02-15T12:43:46;13.20;;;9.87;;
23088;SDS011;11713;48.506;8.966;2023-02-15T12:48:46;12.13;;;10.00;;
23088;SDS011;11713;48.506;8.966;2023-02-15T12:51:16;13.93;;;9.70;;
23088;SDS011;11713;48.506;8.966;2023-02-15T12:53:42;12.80;;;9.20;;
23088;SDS011;11713;48.506;8.966;2023-02-15T12:56:09;12.17;;;9.57;;
23088;SDS011;11713;48.506;8.966;2023-02-15T12:58:38;13.07;;;9.47;;
23088;SDS011;11713;48.506;8.966;2023-02-15T13:03:34;13.70;;;8.90;;
23088;SDS011;11713;48.506;8.966;2023-02-15T13:06:03;13.30;;;8.40;;
23088;SDS011;11713;48.506;8.966;2023-02-15T13:08:34;10.80;;;7.77;;
23088;SDS011;11713;48.506;8.966;2023-02-15T13:11:10;10.37;;;7.20;;
23088;SDS011;11713;48.506;8.966;2023-02-15T13:13:51;7.93;;;6.20;;
23088;SDS011;11713;48.506;8.966;2023-02-15T13:16:28;10.50;;;6.53;;
23088;SDS011;11713;48.506;8.966;2023-02-15T13:18:57;6.93;;;4.70;;
23088;SDS011;11713;48.506;8.966;2023-02-15T13:21:29;5.30;;;3.80;;
23088;SDS011;11713;48.506;8.966;2023-02-15T13:24:02;5.30;;;4.23;;
23088;SDS011;11713;48.506;8.966;2023-02-15T13:26:37;8.67;;;6.47;;
23088;SDS011;11713;48.506;8.966;2023-02-15T13:29:05;9.13;;;7.77;;
23088;SDS011;11713;48.506;8.966;2023-02-15T13:31:37;12.30;;;8.23;;
23088;SDS011;11713;48.506;8.966;2023-02-15T13:34:12;9.97;;;7.83;;
23088;SDS011;11713;48.506;8.966;2023-02-15T13:39:20;9.87;;;7.30;;
23088;SDS011;11713;48.506;8.966;2023-02-15T13:44:52;9.73;;;8.07;;
23088;SDS011;11713;48.506;8.966;2023-02-15T13:50:20;11.17;;;7.43;;
23088;SDS011;11713;48.506;8.966;2023-02-15T14:03:46;7.88;;;6.28;;
23088;SDS011;11713;48.506;8.966;2023-02-15T14:06:47;10.83;;;6.07;;
23088;SDS011;11713;48.506;8.966;2023-02-15T14:09:32;10.48;;;5.80;;
23088;SDS011;11713;48.506;8.966;2023-02-15T14:23:32;5.88;;;4.10;;
23088;SDS011;11713;48.506;8.966;2023-02-15T14:31:55;7.35;;;4.82;;
23088;SDS011;11713;48.506;8.966;2023-02-15T14:40:19;10.93;;;4.90;;
23088;SDS011;11713;48.506;8.966;2023-02-15T14:43:46;7.47;;;5.20;;
23088;SDS011;11713;48.506;8.966;2023-02-15T14:46:11;6.28;;;5.35;;
23088;SDS011;11713;48.506;8.966;2023-02-15T14:48:46;7.78;;;4.80;;
23088;SDS011;11713;48.506;8.966;2023-02-15T14:52:17;5.97;;;4.78;;
23088;SDS011;11713;48.506;8.966;2023-02-15T14:56:45;6.43;;;4.22;;
23088;SDS011;11713;48.506;8.966;2023-02-15T15:01:37;4.72;;;4.22;;
23088;SDS011;11713;48.506;8.966;2023-02-15T15:04:05;9.40;;;5.18;;
23088;SDS011;11713;48.506;8.966;2023-02-15T15:06:34;6.45;;;3.88;;
23088;SDS011;11713;48.506;8.966;2023-02-15T15:09:24;5.40;;;4.03;;
23088;SDS011;11713;48.506;8.966;2023-02-15T15:14:51;5.97;;;4.93;;
23088;SDS011;11713;48.506;8.966;2023-02-15T15:20:00;7.70;;;4.82;;
23088;SDS011;11713;48.506;8.966;2023-02-15T15:22:27;4.53;;;4.03;;
23088;SDS011;11713;48.506;8.966;2023-02-15T15:24:55;9.60;;;4.45;;
23088;SDS011;11713;48.506;8.966;2023-02-15T15:35:33;7.78;;;4.63;;
23088;SDS011;11713;48.506;8.966;2023-02-15T15:40:30;7.17;;;5.20;;
23088;SDS011;11713;48.506;8.966;2023-02-15T15:51:10;8.33;;;5.33;;
23088;SDS011;11713;48.506;8.966;2023-02-15T15:53:41;7.33;;;5.43;;
23088;SDS011;11713;48.506;8.966;2023-02-15T15:56:12;8.37;;;5.67;;
23088;SDS011;11713;48.506;8.966;2023-02-15T15:58:43;8.83;;;5.30;;
23088;SDS011;11713;48.506;8.966;2023-02-15T16:01:14;7.77;;;5.30;;
23088;SDS011;11713;48.506;8.966;2023-02-15T16:04:13;6.33;;;4.90;;
23088;SDS011;11713;48.506;8.966;2023-02-15T16:06:37;9.93;;;6.20;;
23088;SDS011;11713;48.506;8.966;2023-02-15T16:11:39;6.67;;;5.40;;
23088;SDS011;11713;48.506;8.966;2023-02-15T16:14:25;6.70;;;5.10;;
23088;SDS011;11713;48.506;8.966;2023-02-15T16:16:59;6.37;;;5.37;;
23088;SDS011;11713;48.506;8.966;2023-02-15T16:19:45;9.40;;;5.00;;
23088;SDS011;11713;48.506;8.966;2023-02-15T16:22:47;9.43;;;5.63;;
23088;SDS011;11713;48.506;8.966;2023-02-15T16:29:26;11.00;;;6.63;;
23088;SDS011;11713;48.506;8.966;2023-02-15T16:36:30;7.97;;;5.23;;
23088;SDS011;11713;48.506;8.966;2023-02-15T16:41:28;7.57;;;5.17;;
23088;SDS011;11713;48.506;8.966;2023-02-15T16:44:03;7.33;;;5.10;;
23088;SDS011;11713;48.506;8.966;2023-02-15T16:46:42;6.03;;;4.63;;
23088;SDS011;11713;48.506;8.966;2023-02-15T16:49:15;6.27;;;4.80;;
23088;SDS011;11713;48.506;8.966;2023-02-15T16:52:00;7.07;;;5.37;;
23088;SDS011;11713;48.506;8.966;2023-02-15T16:54:31;6.80;;;4.77;;
23088;SDS011;11713;48.506;8.966;2023-02-15T16:56:58;7.50;;;6.00;;
23088;SDS011;11713;48.506;8.966;2023-02-15T17:01:56;6.23;;;4.90;;
23088;SDS011;11713;48.506;8.966;2023-02-15T17:07:00;7.67;;;6.10;;
23088;SDS011;11713;48.506;8.966;2023-02-15T17:09:32;7.13;;;5.80;;
23088;SDS011;11713;48.506;8.966;2023-02-15T17:11:58;11.17;;;5.57;;
23088;SDS011;11713;48.506;8.966;2023-02-15T17:14:27;7.57;;;5.73;;
23088;SDS011;11713;48.506;8.966;2023-02-15T17:17:16;8.57;;;5.90;;
23088;SDS011;11713;48.506;8.966;2023-02-15T17:19:50;8.33;;;5.60;;
23088;SDS011;11713;48.506;8.966;2023-02-15T17:22:20;6.90;;;5.40;;
23088;SDS011;11713;48.506;8.966;2023-02-15T17:24:48;7.07;;;5.37;;
23088;SDS011;11713;48.506;8.966;2023-02-15T17:27:24;6.97;;;5.30;;
23088;SDS011;11713;48.506;8.966;2023-02-15T17:29:59;7.33;;;5.03;;
23088;SDS011;11713;48.506;8.966;2023-02-15T17:32:28;9.47;;;5.17;;
23088;SDS011;11713;48.506;8.966;2023-02-15T17:37:44;11.27;;;5.60;;
23088;SDS011;11713;48.506;8.966;2023-02-15T17:40:23;8.73;;;5.30;;
23088;SDS011;11713;48.506;8.966;2023-02-15T17:42:54;8.57;;;5.57;;
23088;SDS011;11713;48.506;8.966;2023-02-15T17:45:21;7.40;;;4.60;;
23088;SDS011;11713;48.506;8.966;2023-02-15T17:47:49;9.03;;;6.43;;
23088;SDS011;11713;48.506;8.966;2023-02-15T17:52:46;16.53;;;11.27;;
23088;SDS011;11713;48.506;8.966;2023-02-15T17:55:13;13.53;;;9.00;;
23088;SDS011;11713;48.506;8.966;2023-02-15T17:57:59;10.00;;;6.63;;
23088;SDS011;11713;48.506;8.966;2023-02-15T18:00:25;11.63;;;5.57;;
23088;SDS011;11713;48.506;8.966;2023-02-15T18:03:09;8.20;;;5.60;;
23088;SDS011;11713;48.506;8.966;2023-02-15T18:05:55;10.77;;;6.20;;
23088;SDS011;11713;48.506;8.966;2023-02-15T18:08:41;8.40;;;5.17;;
23088;SDS011;11713;48.506;8.966;2023-02-15T18:11:26;7.27;;;5.40;;
23088;SDS011;11713;48.506;8.966;2023-02-15T18:14:05;9.80;;;5.60;;
23088;SDS011;11713;48.506;8.966;2023-02-15T18:16:33;11.23;;;7.50;;
23088;SDS011;11713;48.506;8.966;2023-02-15T18:19:05;12.17;;;7.77;;
23088;SDS011;11713;48.506;8.966;2023-02-15T18:21:38;12.83;;;7.40;;
23088;SDS011;11713;48.506;8.966;2023-02-15T18:24:04;11.93;;;6.17;;
23088;SDS011;11713;48.506;8.966;2023-02-15T18:26:29;15.20;;;9.00;;
23088;SDS011;11713;48.506;8.966;2023-02-15T18:28:56;13.43;;;9.60;;
23088;SDS011;11713;48.506;8.966;2023-02-15T18:31:22;14.57;;;9.20;;
23088;SDS011;11713;48.506;8.966;2023-02-15T18:33:52;14.90;;;8.50;;
23088;SDS011;11713;48.506;8.966;2023-02-15T18:36:25;11.17;;;8.30;;
23088;SDS011;11713;48.506;8.966;2023-02-15T18:38:56;12.70;;;8.40;;
23088;SDS011;11713;48.506;8.966;2023-02-15T18:44:31;17.03;;;11.20;;
23088;SDS011;11713;48.506;8.966;2023-02-15T18:47:03;20.67;;;10.90;;
23088;SDS011;11713;48.506;8.966;2023-02-15T18:49:28;16.43;;;10.73;;
23088;SDS011;11713;48.506;8.966;2023-02-15T18:51:54;16.50;;;11.07;;
23088;SDS011;11713;48.506;8.966;2023-02-15T18:54:21;16.83;;;10.23;;
23088;SDS011;11713;48.506;8.966;2023-02-15T18:56:53;19.13;;;11.57;;
23088;SDS011;11713;48.506;8.966;2023-02-15T18:59:20;16.77;;;11.83;;